SBPP/PMG METAR and TAF weather

Enter ICAO airport designator
Station Type Date Time Source
SBPP METAR 2018/12/12 21:00 UTC NOAA

SBPP 122100Z 00000KT 9999 SCT020 32/19 Q1014


Station Type Date Time Source
SBPP Decoded METAR 2018/12/12 21:00 UTC NOAA

Ponta Pora Intl , Brazil (SBPP) 22-33S 055-42W
Dec 12, 2018 - 04:00 PM EST / 2018.12.12 2100 UTC
Wind: Calm:0
Visibility: greater than 7 mile(s):0
Sky conditions: partly cloudy
Temperature: 89 F (32 C)
Dew Point: 66 F (19 C)
Relative Humidity: 46%
Pressure (altimeter): 29.94 in. Hg (1014 hPa)
ob: SBPP 122100Z 00000KT 9999 SCT020 32/19 Q1014
cycle: 21

Station Type Date Time Source
SBPP TAF 2018/12/13 06:59 UTC NOAA

TAF SBPP 130200Z 1306/1406 02002KT CAVOK TN22/1308Z TX31/1317Z
BECMG 1308/1310 36009KT 9999 FEW020
BECMG 1316/1318 SCT030
BECMG 1322/1324 02006KT F EW020
RMK PER


Example: see airport list